sensor_id;sensor_type;location;lat;lon;timestamp;pressure;altitude;pressure_sealevel;temperature;humidity
13581;BME280;6861;46.170;7.222;2023-04-29T00:01:37;95966.66;;;17.49;63.85
13581;BME280;6861;46.170;7.222;2023-04-29T00:04:05;95958.72;;;17.49;63.72
13581;BME280;6861;46.170;7.222;2023-04-29T00:06:35;95958.56;;;17.54;63.58
13581;BME280;6861;46.170;7.222;2023-04-29T00:09:03;95943.16;;;17.56;63.40
13581;BME280;6861;46.170;7.222;2023-04-29T00:11:31;95942.41;;;17.64;63.30
13581;BME280;6861;46.170;7.222;2023-04-29T00:13:59;95938.09;;;17.68;62.77
13581;BME280;6861;46.170;7.222;2023-04-29T00:16:29;95930.75;;;17.74;62.84
13581;BME280;6861;46.170;7.222;2023-04-29T00:18:58;95931.38;;;17.80;63.11
13581;BME280;6861;46.170;7.222;2023-04-29T00:21:26;95932.34;;;17.84;62.53
13581;BME280;6861;46.170;7.222;2023-04-29T00:23:54;95925.94;;;17.85;62.57
13581;BME280;6861;46.170;7.222;2023-04-29T00:26:22;95920.34;;;17.86;63.08
13581;BME280;6861;46.170;7.222;2023-04-29T00:28:50;95919.56;;;17.86;63.17
13581;BME280;6861;46.170;7.222;2023-04-29T00:31:19;95925.31;;;17.88;63.04
13581;BME280;6861;46.170;7.222;2023-04-29T00:33:49;95924.53;;;17.87;63.11
13581;BME280;6861;46.170;7.222;2023-04-29T00:36:17;95924.84;;;17.86;62.69
13581;BME280;6861;46.170;7.222;2023-04-29T00:38:45;95928.59;;;17.85;63.21
13581;BME280;6861;46.170;7.222;2023-04-29T00:41:13;95928.28;;;17.78;62.96
13581;BME280;6861;46.170;7.222;2023-04-29T00:43:42;95915.03;;;17.78;62.88
13581;BME280;6861;46.170;7.222;2023-04-29T00:46:10;95920.34;;;17.78;63.16
13581;BME280;6861;46.170;7.222;2023-04-29T00:48:39;95917.38;;;17.79;62.95
13581;BME280;6861;46.170;7.222;2023-04-29T00:51:10;95908.81;;;17.74;63.78
13581;BME280;6861;46.170;7.222;2023-04-29T00:53:38;95910.06;;;17.67;63.37
13581;BME280;6861;46.170;7.222;2023-04-29T00:56:07;95905.50;;;17.59;63.79
13581;BME280;6861;46.170;7.222;2023-04-29T00:58:36;95913.75;;;17.58;63.78
13581;BME280;6861;46.170;7.222;2023-04-29T01:01:04;95905.50;;;17.59;63.46
13581;BME280;6861;46.170;7.222;2023-04-29T01:03:33;95904.72;;;17.59;63.25
13581;BME280;6861;46.170;7.222;2023-04-29T01:06:10;95903.63;;;17.60;63.45
13581;BME280;6861;46.170;7.222;2023-04-29T01:08:51;95896.63;;;17.55;63.66
13581;BME280;6861;46.170;7.222;2023-04-29T01:11:22;95897.88;;;17.49;63.56
13581;BME280;6861;46.170;7.222;2023-04-29T01:13:57;95902.06;;;17.50;64.13
13581;BME280;6861;46.170;7.222;2023-04-29T01:16:30;95901.44;;;17.53;63.63
13581;BME280;6861;46.170;7.222;2023-04-29T01:19:03;95898.19;;;17.56;64.05
13581;BME280;6861;46.170;7.222;2023-04-29T01:21:44;95893.69;;;17.57;64.19
13581;BME280;6861;46.170;7.222;2023-04-29T01:24:16;95888.38;;;17.57;64.06
13581;BME280;6861;46.170;7.222;2023-04-29T01:26:50;95880.13;;;17.58;63.92
13581;BME280;6861;46.170;7.222;2023-04-29T01:29:24;95879.81;;;17.60;63.70
13581;BME280;6861;46.170;7.222;2023-04-29T01:32:00;95872.66;;;17.60;63.95
13581;BME280;6861;46.170;7.222;2023-04-29T01:34:38;95871.56;;;17.61;64.48
13581;BME280;6861;46.170;7.222;2023-04-29T01:37:16;95874.69;;;17.63;64.21
13581;BME280;6861;46.170;7.222;2023-04-29T01:39:54;95865.19;;;17.62;64.77
13581;BME280;6861;46.170;7.222;2023-04-29T01:42:28;95873.44;;;17.61;64.07
13581;BME280;6861;46.170;7.222;2023-04-29T01:45:05;95861.00;;;17.61;64.25
13581;BME280;6861;46.170;7.222;2023-04-29T01:47:35;95869.09;;;17.65;64.01
13581;BME280;6861;46.170;7.222;2023-04-29T01:50:04;95854.19;;;17.69;63.87
13581;BME280;6861;46.170;7.222;2023-04-29T01:52:33;95851.50;;;17.60;64.06
13581;BME280;6861;46.170;7.222;2023-04-29T01:55:05;95844.34;;;17.52;64.14
13581;BME280;6861;46.170;7.222;2023-04-29T01:57:33;95848.22;;;17.46;64.19
13581;BME280;6861;46.170;7.222;2023-04-29T02:00:01;95840.91;;;17.43;64.85
13581;BME280;6861;46.170;7.222;2023-04-29T02:02:30;95850.41;;;17.44;64.41
13581;BME280;6861;46.170;7.222;2023-04-29T02:04:58;95857.09;;;17.50;64.84
13581;BME280;6861;46.170;7.222;2023-04-29T02:07:27;95849.63;;;17.52;64.31
13581;BME280;6861;46.170;7.222;2023-04-29T02:09:55;95851.66;;;17.55;64.04
13581;BME280;6861;46.170;7.222;2023-04-29T02:12:24;95861.94;;;17.57;64.11
13581;BME280;6861;46.170;7.222;2023-04-29T02:14:52;95863.78;;;17.56;64.01
13581;BME280;6861;46.170;7.222;2023-04-29T02:17:20;95863.31;;;17.54;64.18
13581;BME280;6861;46.170;7.222;2023-04-29T02:19:49;95867.38;;;17.52;64.22
13581;BME280;6861;46.170;7.222;2023-04-29T02:22:17;95872.03;;;17.46;64.41
13581;BME280;6861;46.170;7.222;2023-04-29T02:24:45;95869.53;;;17.41;64.61
13581;BME280;6861;46.170;7.222;2023-04-29T02:27:13;95871.25;;;17.37;64.89
13581;BME280;6861;46.170;7.222;2023-04-29T02:29:43;95867.03;;;17.36;64.42
13581;BME280;6861;46.170;7.222;2023-04-29T02:32:11;95870.00;;;17.34;64.86
13581;BME280;6861;46.170;7.222;2023-04-29T02:34:41;95878.28;;;17.33;64.36
13581;BME280;6861;46.170;7.222;2023-04-29T02:37:09;95879.19;;;17.37;64.64
13581;BME280;6861;46.170;7.222;2023-04-29T02:39:37;95880.75;;;17.38;64.36
13581;BME280;6861;46.170;7.222;2023-04-29T02:42:05;95870.94;;;17.38;64.40
13581;BME280;6861;46.170;7.222;2023-04-29T02:44:33;95872.19;;;17.32;64.70
13581;BME280;6861;46.170;7.222;2023-04-29T02:47:03;95881.34;;;17.35;64.63
13581;BME280;6861;46.170;7.222;2023-04-29T02:49:31;95884.47;;;17.37;65.21
13581;BME280;6861;46.170;7.222;2023-04-29T02:51:59;95875.16;;;17.31;64.71
13581;BME280;6861;46.170;7.222;2023-04-29T02:54:27;95877.34;;;17.29;65.34
13581;BME280;6861;46.170;7.222;2023-04-29T02:56:55;95878.88;;;17.30;65.54
13581;BME280;6861;46.170;7.222;2023-04-29T02:59:24;95872.66;;;17.26;65.49
13581;BME280;6861;46.170;7.222;2023-04-29T03:01:52;95871.41;;;17.15;65.31
13581;BME280;6861;46.170;7.222;2023-04-29T03:04:22;95862.66;;;17.06;65.85
13581;BME280;6861;46.170;7.222;2023-04-29T03:06:51;95870.72;;;17.00;65.64
13581;BME280;6861;46.170;7.222;2023-04-29T03:09:19;95856.88;;;16.95;66.06
13581;BME280;6861;46.170;7.222;2023-04-29T03:11:47;95860.44;;;16.90;66.15
13581;BME280;6861;46.170;7.222;2023-04-29T03:14:15;95860.59;;;16.85;66.50
13581;BME280;6861;46.170;7.222;2023-04-29T03:16:44;95851.09;;;16.84;66.89
13581;BME280;6861;46.170;7.222;2023-04-29T03:19:12;95841.16;;;16.81;66.58
13581;BME280;6861;46.170;7.222;2023-04-29T03:21:42;95842.84;;;16.77;66.38
13581;BME280;6861;46.170;7.222;2023-04-29T03:24:10;95841.16;;;16.81;66.22
13581;BME280;6861;46.170;7.222;2023-04-29T03:26:38;95842.88;;;16.86;66.65
13581;BME280;6861;46.170;7.222;2023-04-29T03:29:08;95843.16;;;16.84;66.86
13581;BME280;6861;46.170;7.222;2023-04-29T03:31:36;95841.63;;;16.83;66.92
13581;BME280;6861;46.170;7.222;2023-04-29T03:34:04;95844.72;;;16.85;66.62
13581;BME280;6861;46.170;7.222;2023-04-29T03:36:33;95839.13;;;16.87;67.03
13581;BME280;6861;46.170;7.222;2023-04-29T03:39:02;95843.34;;;16.88;66.58
13581;BME280;6861;46.170;7.222;2023-04-29T03:41:31;95840.38;;;16.89;66.89
13581;BME280;6861;46.170;7.222;2023-04-29T03:43:59;95846.63;;;16.93;67.01
13581;BME280;6861;46.170;7.222;2023-04-29T03:46:27;95853.94;;;16.96;66.64
13581;BME280;6861;46.170;7.222;2023-04-29T03:48:55;95849.44;;;16.97;66.60
13581;BME280;6861;46.170;7.222;2023-04-29T03:51:24;95853.31;;;16.99;66.59
13581;BME280;6861;46.170;7.222;2023-04-29T03:53:53;95861.72;;;17.01;66.51
13581;BME280;6861;46.170;7.222;2023-04-29T03:56:23;95868.91;;;17.10;66.55
13581;BME280;6861;46.170;7.222;2023-04-29T03:58:52;95876.69;;;17.15;65.98
13581;BME280;6861;46.170;7.222;2023-04-29T04:01:20;95884.00;;;17.18;66.13
13581;BME280;6861;46.170;7.222;2023-04-29T04:03:48;95891.31;;;17.21;66.42
13581;BME280;6861;46.170;7.222;2023-04-29T04:06:17;95897.84;;;17.23;66.58
13581;BME280;6861;46.170;7.222;2023-04-29T04:08:45;95896.78;;;17.24;66.33
13581;BME280;6861;46.170;7.222;2023-04-29T04:11:13;95894.59;;;17.26;66.53
13581;BME280;6861;46.170;7.222;2023-04-29T04:13:43;95899.25;;;17.21;66.06
13581;BME280;6861;46.170;7.222;2023-04-29T04:16:11;95914.78;;;17.14;66.32
13581;BME280;6861;46.170;7.222;2023-04-29T04:18:39;95919.59;;;17.12;67.10
13581;BME280;6861;46.170;7.222;2023-04-29T04:21:08;95918.50;;;17.13;67.01
13581;BME280;6861;46.170;7.222;2023-04-29T04:23:37;95920.38;;;17.12;67.10
13581;BME280;6861;46.170;7.222;2023-04-29T04:26:07;95911.53;;;17.17;67.28
13581;BME280;6861;46.170;7.222;2023-04-29T04:28:35;95916.50;;;17.18;67.28
13581;BME280;6861;46.170;7.222;2023-04-29T04:31:05;95907.19;;;17.21;66.82
13581;BME280;6861;46.170;7.222;2023-04-29T04:33:33;95911.69;;;17.20;67.04
13581;BME280;6861;46.170;7.222;2023-04-29T04:36:02;95911.38;;;17.22;66.63
13581;BME280;6861;46.170;7.222;2023-04-29T04:38:30;95921.50;;;17.20;66.46
13581;BME280;6861;46.170;7.222;2023-04-29T04:40:58;95922.88;;;17.17;66.76
13581;BME280;6861;46.170;7.222;2023-04-29T04:43:27;95919.47;;;17.17;66.95
13581;BME280;6861;46.170;7.222;2023-04-29T04:45:55;95925.53;;;17.17;67.01
13581;BME280;6861;46.170;7.222;2023-04-29T04:48:24;95926.13;;;17.14;67.41
13581;BME280;6861;46.170;7.222;2023-04-29T04:50:52;95929.69;;;17.10;67.47
13581;BME280;6861;46.170;7.222;2023-04-29T04:53:21;95931.22;;;17.02;67.89
13581;BME280;6861;46.170;7.222;2023-04-29T04:55:49;95919.06;;;16.92;67.84
13581;BME280;6861;46.170;7.222;2023-04-29T04:58:17;95925.09;;;16.84;67.95
13581;BME280;6861;46.170;7.222;2023-04-29T05:00:45;95927.75;;;16.84;68.39
13581;BME280;6861;46.170;7.222;2023-04-29T05:03:13;95931.94;;;16.85;67.98
13581;BME280;6861;46.170;7.222;2023-04-29T05:05:44;95927.91;;;16.88;67.55
13581;BME280;6861;46.170;7.222;2023-04-29T05:08:12;95936.00;;;16.91;68.35
13581;BME280;6861;46.170;7.222;2023-04-29T05:10:40;95926.22;;;16.92;67.85
13581;BME280;6861;46.170;7.222;2023-04-29T05:13:10;95937.88;;;16.91;67.70
13581;BME280;6861;46.170;7.222;2023-04-29T05:15:38;95935.06;;;16.87;67.56
13581;BME280;6861;46.170;7.222;2023-04-29T05:18:06;95938.78;;;16.86;68.31
13581;BME280;6861;46.170;7.222;2023-04-29T05:20:34;95945.03;;;16.90;68.14
13581;BME280;6861;46.170;7.222;2023-04-29T05:23:04;95944.88;;;16.95;68.05
13581;BME280;6861;46.170;7.222;2023-04-29T05:25:32;95939.28;;;16.97;67.52
13581;BME280;6861;46.170;7.222;2023-04-29T05:28:01;95945.38;;;16.97;67.48
13581;BME280;6861;46.170;7.222;2023-04-29T05:30:30;95944.41;;;16.93;67.82
13581;BME280;6861;46.170;7.222;2023-04-29T05:32:58;95941.59;;;16.90;68.23
13581;BME280;6861;46.170;7.222;2023-04-29T05:35:26;95943.59;;;16.84;67.52
13581;BME280;6861;46.170;7.222;2023-04-29T05:37:55;95942.00;;;16.75;67.91
13581;BME280;6861;46.170;7.222;2023-04-29T05:40:24;95937.56;;;16.61;68.07
13581;BME280;6861;46.170;7.222;2023-04-29T05:42:52;95938.28;;;16.53;68.32
13581;BME280;6861;46.170;7.222;2023-04-29T05:45:21;95948.97;;;16.48;68.30
13581;BME280;6861;46.170;7.222;2023-04-29T05:47:49;95950.53;;;16.49;68.60
13581;BME280;6861;46.170;7.222;2023-04-29T05:50:17;95953.66;;;16.51;68.64
13581;BME280;6861;46.170;7.222;2023-04-29T05:52:45;95957.06;;;16.52;68.56
13581;BME280;6861;46.170;7.222;2023-04-29T05:55:13;95958.16;;;16.51;68.60
13581;BME280;6861;46.170;7.222;2023-04-29T05:57:43;95953.81;;;16.46;68.70
13581;BME280;6861;46.170;7.222;2023-04-29T06:00:12;95957.84;;;16.44;68.54
13581;BME280;6861;46.170;7.222;2023-04-29T06:02:40;95961.41;;;16.48;68.59
13581;BME280;6861;46.170;7.222;2023-04-29T06:05:24;95961.28;;;16.53;68.17
13581;BME280;6861;46.170;7.222;2023-04-29T06:07:53;95959.25;;;16.50;68.30
13581;BME280;6861;46.170;7.222;2023-04-29T06:10:21;95973.88;;;16.56;68.36
13581;BME280;6861;46.170;7.222;2023-04-29T06:12:51;95961.28;;;16.53;68.20
13581;BME280;6861;46.170;7.222;2023-04-29T06:15:19;95974.06;;;16.59;68.51
13581;BME280;6861;46.170;7.222;2023-04-29T06:17:47;95973.16;;;16.64;67.93
13581;BME280;6861;46.170;7.222;2023-04-29T06:20:15;95973.53;;;16.71;68.18
13581;BME280;6861;46.170;7.222;2023-04-29T06:22:44;95978.69;;;16.76;68.04
13581;BME280;6861;46.170;7.222;2023-04-29T06:25:12;95979.16;;;16.78;67.70
13581;BME280;6861;46.170;7.222;2023-04-29T06:27:40;95981.22;;;16.81;67.73
13581;BME280;6861;46.170;7.222;2023-04-29T06:30:11;95982.28;;;16.80;68.01
13581;BME280;6861;46.170;7.222;2023-04-29T06:32:39;95981.81;;;16.78;67.82
13581;BME280;6861;46.170;7.222;2023-04-29T06:35:08;95988.19;;;16.77;67.50
13581;BME280;6861;46.170;7.222;2023-04-29T06:37:36;95985.22;;;16.79;67.75
13581;BME280;6861;46.170;7.222;2023-04-29T06:40:05;95984.28;;;16.75;67.62
13581;BME280;6861;46.170;7.222;2023-04-29T06:42:33;95995.03;;;16.78;67.84
13581;BME280;6861;46.170;7.222;2023-04-29T06:45:02;95995.97;;;16.82;67.81
13581;BME280;6861;46.170;7.222;2023-04-29T06:47:32;95990.56;;;16.87;67.22
13581;BME280;6861;46.170;7.222;2023-04-29T06:50:00;95991.53;;;16.91;67.61
13581;BME280;6861;46.170;7.222;2023-04-29T06:52:29;95996.94;;;16.86;67.61
13581;BME280;6861;46.170;7.222;2023-04-29T06:54:57;95994.38;;;16.73;67.54
13581;BME280;6861;46.170;7.222;2023-04-29T06:57:26;95988.00;;;16.74;67.53
13581;BME280;6861;46.170;7.222;2023-04-29T06:59:54;95988.78;;;16.74;67.90
13581;BME280;6861;46.170;7.222;2023-04-29T07:02:22;95996.59;;;16.79;67.55
13581;BME280;6861;46.170;7.222;2023-04-29T07:04:52;96002.34;;;16.81;67.34
13581;BME280;6861;46.170;7.222;2023-04-29T07:07:21;96006.19;;;16.75;67.86
13581;BME280;6861;46.170;7.222;2023-04-29T07:09:49;95994.50;;;16.67;67.63
13581;BME280;6861;46.170;7.222;2023-04-29T07:12:19;95997.63;;;16.69;67.62
13581;BME280;6861;46.170;7.222;2023-04-29T07:14:47;96000.31;;;16.78;67.63
13581;BME280;6861;46.170;7.222;2023-04-29T07:17:15;95993.34;;;16.82;67.49
13581;BME280;6861;46.170;7.222;2023-04-29T07:19:43;95991.66;;;16.86;67.46
13581;BME280;6861;46.170;7.222;2023-04-29T07:22:13;95991.88;;;16.98;67.24
13581;BME280;6861;46.170;7.222;2023-04-29T07:24:41;95983.31;;;17.01;67.12
13581;BME280;6861;46.170;7.222;2023-04-29T07:27:09;95985.34;;;17.04;66.96
13581;BME280;6861;46.170;7.222;2023-04-29T07:29:37;95987.53;;;17.02;67.09
13581;BME280;6861;46.170;7.222;2023-04-29T07:32:06;95983.16;;;16.98;67.82
13581;BME280;6861;46.170;7.222;2023-04-29T07:34:34;95988.81;;;16.83;68.20
13581;BME280;6861;46.170;7.222;2023-04-29T07:37:02;95988.44;;;16.67;68.16
13581;BME280;6861;46.170;7.222;2023-04-29T07:39:32;95991.38;;;16.65;68.55
13581;BME280;6861;46.170;7.222;2023-04-29T07:42:01;95973.66;;;16.66;68.41
13581;BME280;6861;46.170;7.222;2023-04-29T07:44:30;95974.75;;;16.65;68.50
13581;BME280;6861;46.170;7.222;2023-04-29T07:46:58;95982.41;;;16.75;68.39
13581;BME280;6861;46.170;7.222;2023-04-29T07:49:26;95983.25;;;16.84;68.60
13581;BME280;6861;46.170;7.222;2023-04-29T07:51:54;95983.94;;;16.98;67.67
13581;BME280;6861;46.170;7.222;2023-04-29T07:54:23;95984.00;;;17.16;67.69
13581;BME280;6861;46.170;7.222;2023-04-29T07:56:52;95981.25;;;17.38;67.62
13581;BME280;6861;46.170;7.222;2023-04-29T07:59:20;95980.34;;;17.51;66.69
13581;BME280;6861;46.170;7.222;2023-04-29T08:01:49;95978.09;;;17.67;66.16
13581;BME280;6861;46.170;7.222;2023-04-29T08:04:17;95973.91;;;17.75;66.46
13581;BME280;6861;46.170;7.222;2023-04-29T08:06:46;95978.41;;;17.83;65.79
13581;BME280;6861;46.170;7.222;2023-04-29T08:09:14;95982.63;;;18.01;65.50
13581;BME280;6861;46.170;7.222;2023-04-29T08:11:43;95977.34;;;18.18;64.97
13581;BME280;6861;46.170;7.222;2023-04-29T08:14:13;95976.53;;;18.35;64.22
13581;BME280;6861;46.170;7.222;2023-04-29T08:16:41;95978.69;;;18.59;63.87
13581;BME280;6861;46.170;7.222;2023-04-29T08:19:09;95984.09;;;18.88;62.93
13581;BME280;6861;46.170;7.222;2023-04-29T08:21:37;95984.69;;;19.03;62.75
13581;BME280;6861;46.170;7.222;2023-04-29T08:24:06;95984.69;;;19.03;62.08
13581;BME280;6861;46.170;7.222;2023-04-29T08:26:34;95978.75;;;18.97;62.11
13581;BME280;6861;46.170;7.222;2023-04-29T08:29:02;95975.97;;;18.93;62.21
13581;BME280;6861;46.170;7.222;2023-04-29T08:31:32;95979.72;;;18.92;61.83
13581;BME280;6861;46.170;7.222;2023-04-29T08:34:00;95977.84;;;18.93;61.92
13581;BME280;6861;46.170;7.222;2023-04-29T08:36:28;95977.09;;;18.84;61.73
13581;BME280;6861;46.170;7.222;2023-04-29T08:38:56;95971.94;;;18.87;62.21
13581;BME280;6861;46.170;7.222;2023-04-29T08:41:25;95965.50;;;18.97;62.06
13581;BME280;6861;46.170;7.222;2023-04-29T08:43:53;95969.03;;;19.10;61.63
13581;BME280;6861;46.170;7.222;2023-04-29T08:46:23;95974.75;;;19.20;61.13
13581;BME280;6861;46.170;7.222;2023-04-29T08:48:54;95967.84;;;19.28;60.60
13581;BME280;6861;46.170;7.222;2023-04-29T08:51:23;95970.31;;;19.33;60.27
13581;BME280;6861;46.170;7.222;2023-04-29T08:53:52;95962.44;;;19.45;60.12
13581;BME280;6861;46.170;7.222;2023-04-29T08:56:20;95956.16;;;19.58;60.01
13581;BME280;6861;46.170;7.222;2023-04-29T08:58:49;95960.81;;;20.03;59.45
13581;BME280;6861;46.170;7.222;2023-04-29T09:01:20;95959.69;;;20.46;58.29
13581;BME280;6861;46.170;7.222;2023-04-29T09:03:55;95959.78;;;20.70;57.70
13581;BME280;6861;46.170;7.222;2023-04-29T09:06:29;95963.09;;;20.67;57.57
13581;BME280;6861;46.170;7.222;2023-04-29T09:08:59;95966.69;;;20.50;57.71
13581;BME280;6861;46.170;7.222;2023-04-29T09:11:30;95968.31;;;20.43;57.98
13581;BME280;6861;46.170;7.222;2023-04-29T09:13:58;95961.47;;;20.21;57.58
13581;BME280;6861;46.170;7.222;2023-04-29T09:16:28;95960.75;;;20.12;57.62
13581;BME280;6861;46.170;7.222;2023-04-29T09:18:58;95962.50;;;20.08;57.82
13581;BME280;6861;46.170;7.222;2023-04-29T09:21:27;95955.06;;;20.01;57.90
13581;BME280;6861;46.170;7.222;2023-04-29T09:23:58;95964.22;;;19.91;58.00
13581;BME280;6861;46.170;7.222;2023-04-29T09:26:35;95965.56;;;19.77;58.00
13581;BME280;6861;46.170;7.222;2023-04-29T09:29:09;95966.88;;;19.71;58.41
13581;BME280;6861;46.170;7.222;2023-04-29T09:31:40;95967.50;;;19.68;57.95
13581;BME280;6861;46.170;7.222;2023-04-29T09:34:10;95957.22;;;19.66;58.37
13581;BME280;6861;46.170;7.222;2023-04-29T09:36:43;95965.44;;;19.73;58.13
13581;BME280;6861;46.170;7.222;2023-04-29T09:39:13;95960.91;;;19.74;57.73
13581;BME280;6861;46.170;7.222;2023-04-29T09:41:57;95957.41;;;19.82;57.82
13581;BME280;6861;46.170;7.222;2023-04-29T09:44:27;95955.03;;;19.89;57.60
13581;BME280;6861;46.170;7.222;2023-04-29T09:47:01;95951.59;;;19.88;57.71
13581;BME280;6861;46.170;7.222;2023-04-29T09:49:32;95957.25;;;19.99;57.39
13581;BME280;6861;46.170;7.222;2023-04-29T09:52:04;95958.88;;;20.12;57.28
13581;BME280;6861;46.170;7.222;2023-04-29T09:54:34;95956.59;;;20.23;57.31
13581;BME280;6861;46.170;7.222;2023-04-29T09:57:05;95954.13;;;20.39;56.87
13581;BME280;6861;46.170;7.222;2023-04-29T09:59:35;95953.97;;;20.56;56.75
13581;BME280;6861;46.170;7.222;2023-04-29T10:02:06;95944.06;;;20.77;56.53
13581;BME280;6861;46.170;7.222;2023-04-29T10:04:39;95947.81;;;21.01;56.25
13581;BME280;6861;46.170;7.222;2023-04-29T10:07:13;95951.31;;;21.25;55.65
13581;BME280;6861;46.170;7.222;2023-04-29T10:09:43;95940.09;;;21.44;55.31
13581;BME280;6861;46.170;7.222;2023-04-29T10:12:14;95940.28;;;21.64;55.36
13581;BME280;6861;46.170;7.222;2023-04-29T10:14:47;95937.69;;;21.79;55.12
13581;BME280;6861;46.170;7.222;2023-04-29T10:17:23;95947.06;;;22.01;54.41
13581;BME280;6861;46.170;7.222;2023-04-29T10:20:02;95937.94;;;22.14;53.41
13581;BME280;6861;46.170;7.222;2023-04-29T10:22:35;95931.41;;;22.40;53.34
13581;BME280;6861;46.170;7.222;2023-04-29T10:25:09;95928.28;;;22.97;52.18
13581;BME280;6861;46.170;7.222;2023-04-29T10:27:38;95934.59;;;23.56;51.44
13581;BME280;6861;46.170;7.222;2023-04-29T10:30:12;95935.38;;;23.56;51.28
13581;BME280;6861;46.170;7.222;2023-04-29T10:32:41;95937.56;;;23.35;51.64
13581;BME280;6861;46.170;7.222;2023-04-29T10:35:17;95931.63;;;23.10;52.16
13581;BME280;6861;46.170;7.222;2023-04-29T10:37:46;95928.88;;;22.91;52.40
13581;BME280;6861;46.170;7.222;2023-04-29T10:40:16;95917.94;;;22.80;53.08
13581;BME280;6861;46.170;7.222;2023-04-29T10:42:48;95923.16;;;22.76;52.82
13581;BME280;6861;46.170;7.222;2023-04-29T10:45:20;95926.94;;;22.75;53.42
13581;BME280;6861;46.170;7.222;2023-04-29T10:48:07;95921.00;;;22.66;52.20
13581;BME280;6861;46.170;7.222;2023-04-29T10:53:27;95912.75;;;22.12;52.84
13581;BME280;6861;46.170;7.222;2023-04-29T10:55:58;95915.22;;;22.05;53.63
13581;BME280;6861;46.170;7.222;2023-04-29T10:58:37;95912.88;;;22.03;54.06
13581;BME280;6861;46.170;7.222;2023-04-29T11:01:06;95909.75;;;22.01;53.82
13581;BME280;6861;46.170;7.222;2023-04-29T11:03:52;95905.69;;;21.91;53.34
13581;BME280;6861;46.170;7.222;2023-04-29T11:06:40;95890.72;;;21.87;53.35
13581;BME280;6861;46.170;7.222;2023-04-29T11:09:10;95893.19;;;21.80;53.22
13581;BME280;6861;46.170;7.222;2023-04-29T11:11:44;95887.66;;;21.73;54.10
13581;BME280;6861;46.170;7.222;2023-04-29T11:14:18;95890.38;;;21.61;54.04
13581;BME280;6861;46.170;7.222;2023-04-29T11:16:50;95889.06;;;21.42;54.35
13581;BME280;6861;46.170;7.222;2023-04-29T11:19:19;95886.84;;;21.08;54.49
13581;BME280;6861;46.170;7.222;2023-04-29T11:22:12;95898.72;;;20.86;54.70
13581;BME280;6861;46.170;7.222;2023-04-29T11:24:52;95890.16;;;20.80;54.95
13581;BME280;6861;46.170;7.222;2023-04-29T11:27:22;95901.25;;;20.82;55.25
13581;BME280;6861;46.170;7.222;2023-04-29T11:29:53;95895.28;;;20.85;55.43
13581;BME280;6861;46.170;7.222;2023-04-29T11:32:25;95893.84;;;20.88;55.74
13581;BME280;6861;46.170;7.222;2023-04-29T11:34:55;95897.94;;;20.98;55.26
13581;BME280;6861;46.170;7.222;2023-04-29T11:37:35;95900.50;;;21.06;55.05
13581;BME280;6861;46.170;7.222;2023-04-29T11:40:04;95890.19;;;21.17;54.80
13581;BME280;6861;46.170;7.222;2023-04-29T11:42:33;95892.75;;;21.25;54.76
13581;BME280;6861;46.170;7.222;2023-04-29T11:45:02;95884.97;;;21.33;54.52
13581;BME280;6861;46.170;7.222;2023-04-29T11:47:30;95889.75;;;21.39;54.40
13581;BME280;6861;46.170;7.222;2023-04-29T11:50:03;95887.97;;;21.43;53.88
13581;BME280;6861;46.170;7.222;2023-04-29T11:52:31;95887.19;;;21.43;54.50
13581;BME280;6861;46.170;7.222;2023-04-29T11:55:02;95878.31;;;21.39;54.34
13581;BME280;6861;46.170;7.222;2023-04-29T11:57:30;95874.91;;;21.26;54.54
13581;BME280;6861;46.170;7.222;2023-04-29T11:59:59;95871.56;;;21.17;54.40
13581;BME280;6861;46.170;7.222;2023-04-29T12:02:30;95880.97;;;21.14;54.40
13581;BME280;6861;46.170;7.222;2023-04-29T12:04:59;95872.22;;;21.14;54.61
13581;BME280;6861;46.170;7.222;2023-04-29T12:07:28;95875.31;;;21.16;54.67
13581;BME280;6861;46.170;7.222;2023-04-29T12:09:57;95870.56;;;21.21;54.28
13581;BME280;6861;46.170;7.222;2023-04-29T12:12:27;95870.34;;;21.26;54.51
13581;BME280;6861;46.170;7.222;2023-04-29T12:14:57;95874.22;;;21.29;54.81
13581;BME280;6861;46.170;7.222;2023-04-29T12:17:25;95878.78;;;21.29;54.09
13581;BME280;6861;46.170;7.222;2023-04-29T12:19:53;95875.78;;;21.30;54.42
13581;BME280;6861;46.170;7.222;2023-04-29T12:22:22;95869.00;;;21.33;54.16
13581;BME280;6861;46.170;7.222;2023-04-29T12:24:51;95876.22;;;21.32;53.83
13581;BME280;6861;46.170;7.222;2023-04-29T12:27:20;95869.13;;;21.36;54.20
13581;BME280;6861;46.170;7.222;2023-04-29T12:29:51;95873.09;;;21.42;54.00
13581;BME280;6861;46.170;7.222;2023-04-29T12:32:21;95871.84;;;21.52;53.85
13581;BME280;6861;46.170;7.222;2023-04-29T12:34:51;95870.84;;;21.56;53.67
13581;BME280;6861;46.170;7.222;2023-04-29T12:37:20;95875.28;;;21.65;53.99
13581;BME280;6861;46.170;7.222;2023-04-29T12:39:49;95870.56;;;21.74;53.82
13581;BME280;6861;46.170;7.222;2023-04-29T12:42:18;95867.41;;;21.84;52.95
13581;BME280;6861;46.170;7.222;2023-04-29T12:44:46;95880.06;;;21.87;53.17
13581;BME280;6861;46.170;7.222;2023-04-29T12:47:16;95873.84;;;21.83;52.30
13581;BME280;6861;46.170;7.222;2023-04-29T12:49:45;95873.41;;;21.81;52.57
13581;BME280;6861;46.170;7.222;2023-04-29T12:52:14;95884.75;;;21.78;52.64
13581;BME280;6861;46.170;7.222;2023-04-29T12:54:43;95870.34;;;21.67;53.06
13581;BME280;6861;46.170;7.222;2023-04-29T12:57:11;95874.97;;;21.54;52.71
13581;BME280;6861;46.170;7.222;2023-04-29T12:59:40;95861.34;;;21.43;52.96
13581;BME280;6861;46.170;7.222;2023-04-29T13:02:08;95863.13;;;21.39;52.64
13581;BME280;6861;46.170;7.222;2023-04-29T13:04:37;95862.00;;;21.40;52.52
13581;BME280;6861;46.170;7.222;2023-04-29T13:07:06;95867.88;;;21.46;52.95
13581;BME280;6861;46.170;7.222;2023-04-29T13:09:34;95865.75;;;21.51;53.07
13581;BME280;6861;46.170;7.222;2023-04-29T13:12:04;95871.28;;;21.58;53.28
13581;BME280;6861;46.170;7.222;2023-04-29T13:14:35;95863.84;;;21.64;52.88
13581;BME280;6861;46.170;7.222;2023-04-29T13:17:03;95861.00;;;21.73;52.62
13581;BME280;6861;46.170;7.222;2023-04-29T13:19:32;95858.31;;;21.85;52.39
13581;BME280;6861;46.170;7.222;2023-04-29T13:22:17;95863.25;;;21.99;52.03
13581;BME280;6861;46.170;7.222;2023-04-29T13:24:45;95865.56;;;22.12;51.98
13581;BME280;6861;46.170;7.222;2023-04-29T13:27:13;95859.38;;;22.24;51.79